createdAt,value
2019-01-08T00:01:25.805Z,98750.52
2019-01-08T00:03:55.529Z,98750.52
2019-01-08T00:06:25.164Z,98750.86
2019-01-08T00:08:54.977Z,98750.86
2019-01-08T00:11:24.478Z,98755.40
2019-01-08T00:13:54.070Z,98755.40
2019-01-08T00:16:23.698Z,98755.30
2019-01-08T00:18:53.465Z,98751.56
2019-01-08T00:21:22.969Z,98747.36
2019-01-08T00:23:52.500Z,98751.45
2019-01-08T00:26:21.922Z,98746.33
2019-01-08T00:28:51.326Z,98744.85
2019-01-08T00:31:20.949Z,98747.41
2019-01-08T00:33:50.464Z,98751.45
2019-01-08T00:36:19.874Z,98751.45
2019-01-08T00:38:49.770Z,98751.90
2019-01-08T00:41:19.557Z,98755.98
2019-01-08T00:43:49.174Z,98755.98
2019-01-08T00:46:18.837Z,98748.78
2019-01-08T00:48:48.598Z,98739.11
2019-01-08T00:51:18.018Z,98738.02
2019-01-08T00:53:47.603Z,98742.84
2019-01-08T00:56:17.161Z,98742.84
2019-01-08T00:58:51.556Z,98741.91
2019-01-08T01:01:18.067Z,98741.91
2019-01-08T01:03:47.651Z,98730.97
2019-01-08T01:06:17.390Z,98742.55
2019-01-08T01:08:47.146Z,98730.78
2019-01-08T01:11:16.876Z,98729.39
2019-01-08T01:13:46.287Z,98726.88
2019-01-08T01:16:15.788Z,98725.55
2019-01-08T01:18:45.204Z,98725.55
2019-01-08T01:21:14.708Z,98716.64
2019-01-08T01:23:44.210Z,98716.64
2019-01-08T01:26:13.619Z,98709.83
2019-01-08T01:28:43.022Z,98709.83
2019-01-08T01:31:12.519Z,98705.53
2019-01-08T01:33:42.289Z,98698.76
2019-01-08T01:36:11.936Z,98698.76
2019-01-08T01:38:41.548Z,98692.30
2019-01-08T01:41:11.372Z,98690.32
2019-01-08T01:43:41.115Z,98689.42
2019-01-08T01:46:10.677Z,98689.22
2019-01-08T01:48:40.255Z,98688.88
2019-01-08T01:51:11.045Z,98688.88
2019-01-08T01:53:40.782Z,98680.56
2019-01-08T01:56:10.196Z,98680.56
2019-01-08T01:58:39.837Z,98676.13
2019-01-08T02:01:09.437Z,98668.66
2019-01-08T02:03:38.852Z,98668.66
2019-01-08T02:06:08.365Z,98665.88
2019-01-08T02:08:37.872Z,98675.45
2019-01-08T02:11:07.437Z,98660.94
2019-01-08T02:13:36.942Z,98660.94
2019-01-08T02:16:06.691Z,98666.62
2019-01-08T02:18:36.495Z,98662.38
2019-01-08T02:21:06.188Z,98659.71
2019-01-08T02:23:35.786Z,98659.71
2019-01-08T02:26:05.530Z,98650.76
2019-01-08T02:28:35.034Z,98650.76
2019-01-08T02:31:04.721Z,98654.25
2019-01-08T02:33:34.289Z,98654.25
2019-01-08T02:36:04.058Z,98649.88
2019-01-08T02:38:33.755Z,98649.88
2019-01-08T02:41:03.290Z,98649.14
2019-01-08T02:43:32.804Z,98649.88
2019-01-08T02:46:02.658Z,98635.92
2019-01-08T02:48:32.256Z,98637.71
2019-01-08T02:51:02.080Z,98625.27
2019-01-08T02:53:31.818Z,98625.27
2019-01-08T02:56:01.483Z,98622.80
2019-01-08T02:58:30.881Z,98627.48
2019-01-08T03:01:00.631Z,98627.48
2019-01-08T03:03:30.141Z,98626.38
2019-01-08T03:05:59.565Z,98626.38
2019-01-08T03:08:28.972Z,98629.81
2019-01-08T03:10:58.487Z,98629.81
2019-01-08T03:13:27.993Z,98623.98
2019-01-08T03:15:57.424Z,98623.98
2019-01-08T03:18:26.826Z,98618.27
2019-01-08T03:20:56.327Z,98612.84
2019-01-08T03:23:25.827Z,98618.95
2019-01-08T03:25:55.477Z,98618.95
2019-01-08T03:28:24.873Z,98630.83
2019-01-08T03:30:58.151Z,98630.83
2019-01-08T03:33:27.966Z,98632.97
2019-01-08T03:35:57.367Z,98632.97
2019-01-08T03:38:26.807Z,98640.41
2019-01-08T03:40:56.508Z,98637.46
2019-01-08T03:43:26.097Z,98637.95
2019-01-08T03:45:55.782Z,98631.99
2019-01-08T03:48:25.390Z,98634.64
2019-01-08T03:50:54.884Z,98633.55
2019-01-08T03:53:24.623Z,98630.38
2019-01-08T03:55:54.201Z,98633.48
2019-01-08T03:58:23.928Z,98629.80
2019-01-08T04:00:53.609Z,98633.36
2019-01-08T04:03:23.069Z,98626.70
2019-01-08T04:05:52.596Z,98630.53
2019-01-08T04:08:22.460Z,98631.72
2019-01-08T04:10:52.173Z,98629.44
2019-01-08T04:13:21.733Z,98626.95
2019-01-08T04:15:51.602Z,98624.66
2019-01-08T04:18:21.121Z,98631.38
2019-01-08T04:20:50.690Z,98620.89
2019-01-08T04:23:20.263Z,98617.34
2019-01-08T04:25:50.013Z,98619.06
2019-01-08T04:28:19.769Z,98617.78
2019-01-08T04:30:49.423Z,98620.00
2019-01-08T04:33:18.897Z,98614.34
2019-01-08T04:35:48.656Z,98620.52
2019-01-08T04:38:18.115Z,98619.17
2019-01-08T04:40:47.674Z,98619.17
2019-01-08T04:43:17.515Z,98611.73
2019-01-08T04:45:46.901Z,98594.67
2019-01-08T04:48:16.562Z,98609.88
2019-01-08T04:50:46.053Z,98615.88
2019-01-08T04:53:15.809Z,98609.70
2019-01-08T04:55:45.258Z,98609.31
2019-01-08T04:58:14.887Z,98609.31
2019-01-08T05:00:44.434Z,98619.70
2019-01-08T05:03:14.235Z,98614.48
2019-01-08T05:05:43.709Z,98613.90
2019-01-08T05:08:13.321Z,98616.72
2019-01-08T05:10:43.068Z,98620.45
2019-01-08T05:13:12.855Z,98617.39
2019-01-08T05:15:42.430Z,98618.79
2019-01-08T05:18:12.671Z,98623.11
2019-01-08T05:20:42.081Z,98620.06
2019-01-08T05:23:11.548Z,98623.69
2019-01-08T05:25:41.211Z,98611.95
2019-01-08T05:28:10.728Z,98616.17
2019-01-08T05:30:40.273Z,98619.40
2019-01-08T05:33:09.988Z,98619.40
2019-01-08T05:35:39.493Z,98614.50
2019-01-08T05:38:09.173Z,98613.74
2019-01-08T05:40:38.587Z,98609.64
2019-01-08T05:43:08.026Z,98609.19
2019-01-08T05:45:37.534Z,98603.74
2019-01-08T05:48:07.036Z,98597.94
2019-01-08T05:50:36.462Z,98595.32
2019-01-08T05:53:05.892Z,98589.27
2019-01-08T05:55:35.406Z,98589.27
2019-01-08T05:58:04.836Z,98590.33
2019-01-08T06:00:34.334Z,98592.00
2019-01-08T06:03:04.136Z,98588.63
2019-01-08T06:05:36.416Z,98588.80
2019-01-08T06:08:06.031Z,98593.30
2019-01-08T06:10:35.796Z,98595.39
2019-01-08T06:13:05.794Z,98595.23
2019-01-08T06:15:35.190Z,98595.23
2019-01-08T06:18:04.605Z,98599.39
2019-01-08T06:20:34.098Z,98596.17
2019-01-08T06:23:03.881Z,98594.17
2019-01-08T06:25:33.447Z,98588.23
2019-01-08T06:28:03.087Z,98596.27
2019-01-08T06:30:32.568Z,98593.45
2019-01-08T06:33:04.143Z,98593.67
2019-01-08T06:35:33.745Z,98602.45
2019-01-08T06:38:03.295Z,98597.74
2019-01-08T06:40:32.857Z,98607.66
2019-01-08T06:43:02.269Z,98604.05
2019-01-08T06:45:31.928Z,98603.66
2019-01-08T06:48:01.836Z,98605.78
2019-01-08T06:50:31.455Z,98606.07
2019-01-08T06:53:01.086Z,98606.07
2019-01-08T06:55:30.725Z,98594.78
2019-01-08T06:58:00.295Z,98582.91
2019-01-08T07:00:33.416Z,98583.91
2019-01-08T07:03:01.251Z,98582.30
2019-01-08T07:05:31.010Z,98577.44
2019-01-08T07:08:00.853Z,98574.94
2019-01-08T07:10:30.262Z,98574.94
2019-01-08T07:12:59.998Z,98573.76
2019-01-08T07:15:29.759Z,98563.13
2019-01-08T07:17:59.518Z,98557.38
2019-01-08T07:20:29.014Z,98559.86
2019-01-08T07:22:58.775Z,98559.86
2019-01-08T07:25:28.159Z,98557.47
2019-01-08T07:27:57.559Z,98552.64
2019-01-08T07:30:27.289Z,98552.64
2019-01-08T07:32:56.804Z,98551.89
2019-01-08T07:35:26.427Z,98542.00
2019-01-08T07:37:55.849Z,98544.05
2019-01-08T07:40:25.494Z,98535.82
2019-01-08T07:42:55.004Z,98535.82
2019-01-08T07:45:24.411Z,98532.17
2019-01-08T07:47:54.078Z,98532.17
2019-01-08T07:50:23.889Z,98526.59
2019-01-08T07:52:53.600Z,98526.59
2019-01-08T07:55:23.001Z,98521.57
2019-01-08T07:57:52.505Z,98526.00
2019-01-08T08:00:22.001Z,98522.80
2019-01-08T08:02:51.615Z,98515.72
2019-01-08T08:05:21.388Z,98515.72
2019-01-08T08:07:51.059Z,98508.09
2019-01-08T08:10:20.728Z,98486.70
2019-01-08T08:12:50.357Z,98501.94
2019-01-08T08:15:20.059Z,98504.29
2019-01-08T08:17:50.796Z,98494.68
2019-01-08T08:20:20.451Z,98501.50
2019-01-08T08:22:49.976Z,98494.13
2019-01-08T08:25:19.769Z,98495.73
2019-01-08T08:27:49.469Z,98490.06
2019-01-08T08:30:19.135Z,98490.60
2019-01-08T08:32:48.538Z,98489.45
2019-01-08T08:35:18.206Z,98489.45
2019-01-08T08:37:47.725Z,98486.56
2019-01-08T08:40:17.151Z,98479.86
2019-01-08T08:42:46.740Z,98476.87
2019-01-08T08:45:16.579Z,98470.19
2019-01-08T08:47:46.287Z,98474.05
2019-01-08T08:50:15.876Z,98465.30
2019-01-08T08:52:45.270Z,98463.55
2019-01-08T08:55:15.016Z,98459.45
2019-01-08T08:57:44.663Z,98453.40
2019-01-08T09:00:14.304Z,98448.30
2019-01-08T09:02:43.888Z,98442.46
2019-01-08T09:05:13.491Z,98435.07
2019-01-08T09:07:43.193Z,98430.95
2019-01-08T09:10:12.606Z,98426.41
2019-01-08T09:12:41.979Z,98423.59
2019-01-08T09:15:11.860Z,98413.68
2019-01-08T09:17:41.247Z,98415.67
2019-01-08T09:20:11.580Z,98407.97
2019-01-08T09:22:41.424Z,98404.98
2019-01-08T09:25:10.825Z,98402.28
2019-01-08T09:27:40.379Z,98396.22
2019-01-08T09:30:10.152Z,98391.98
2019-01-08T09:32:39.842Z,98385.11
2019-01-08T09:35:09.262Z,98389.58
2019-01-08T09:37:38.664Z,98377.16
2019-01-08T09:40:08.527Z,98374.33
2019-01-08T09:42:38.085Z,98361.95
2019-01-08T09:45:08.551Z,98352.17
2019-01-08T09:47:37.935Z,98347.02
2019-01-08T09:50:08.615Z,98346.03
2019-01-08T09:52:38.103Z,98330.13
2019-01-08T09:55:07.632Z,98326.28
2019-01-08T09:57:37.141Z,98323.64
2019-01-08T10:00:07.224Z,98315.02
2019-01-08T10:02:36.638Z,98309.71
2019-01-08T10:05:06.695Z,98300.33
2019-01-08T10:07:36.225Z,98291.13
2019-01-08T10:10:05.855Z,98284.36
2019-01-08T10:12:35.267Z,98277.95
2019-01-08T10:15:04.973Z,98277.87
2019-01-08T10:17:34.512Z,98272.58
2019-01-08T10:20:04.013Z,98278.56
2019-01-08T10:22:33.401Z,98266.34
2019-01-08T10:25:02.918Z,98267.95
2019-01-08T10:27:32.426Z,98250.57
2019-01-08T10:30:01.853Z,98251.10
2019-01-08T10:32:31.369Z,98242.18
2019-01-08T10:35:00.872Z,98235.69
2019-01-08T10:37:30.269Z,98229.35
2019-01-08T10:40:01.513Z,98216.91
2019-01-08T10:42:30.987Z,98215.58
2019-01-08T10:45:00.443Z,98200.19
2019-01-08T10:47:29.839Z,98194.81
2019-01-08T10:49:59.336Z,98191.45
2019-01-08T10:52:28.902Z,98190.53
2019-01-08T10:54:58.344Z,98177.13
2019-01-08T10:57:27.864Z,98179.05
2019-01-08T10:59:57.367Z,98171.17
2019-01-08T11:02:26.862Z,98160.27
2019-01-08T11:04:56.260Z,98154.74
2019-01-08T11:07:25.674Z,98142.66
2019-01-08T11:09:55.191Z,98134.78
2019-01-08T11:12:24.691Z,98129.41
2019-01-08T11:14:54.086Z,98122.11
2019-01-08T11:17:23.580Z,98117.66
2019-01-08T11:19:53.473Z,98110.20
2019-01-08T11:22:22.977Z,98094.89
2019-01-08T11:24:52.383Z,98095.99
2019-01-08T11:27:22.116Z,98088.33
2019-01-08T11:29:52.501Z,98074.19
2019-01-08T11:32:22.029Z,98067.22
2019-01-08T11:34:51.426Z,98069.23
2019-01-08T11:37:20.883Z,98058.56
2019-01-08T11:39:50.373Z,98053.20
2019-01-08T11:42:19.866Z,98049.31
2019-01-08T11:44:49.254Z,98043.45
2019-01-08T11:47:18.877Z,98040.13
2019-01-08T11:49:48.380Z,98032.84
2019-01-08T11:52:17.939Z,98035.77
2019-01-08T11:54:47.401Z,98025.98
2019-01-08T11:57:16.920Z,98026.69
2019-01-08T11:59:48.256Z,98025.34
2019-01-08T12:02:17.477Z,98024.53
2019-01-08T12:04:46.983Z,98017.38
2019-01-08T12:07:18.690Z,98013.55
2019-01-08T12:09:48.192Z,98002.78
2019-01-08T12:12:17.607Z,98000.05
2019-01-08T12:14:47.125Z,97991.27
2019-01-08T12:17:16.679Z,97991.52
2019-01-08T12:19:46.086Z,97983.48
2019-01-08T12:22:15.597Z,97985.44
2019-01-08T12:24:45.096Z,97974.32
2019-01-08T12:27:14.596Z,97977.58
2019-01-08T12:29:43.979Z,97974.22
2019-01-08T12:32:13.365Z,97970.75
2019-01-08T12:34:42.870Z,97965.72
2019-01-08T12:37:12.268Z,97969.64
2019-01-08T12:39:41.768Z,97963.53
2019-01-08T12:42:11.281Z,97960.27
2019-01-08T12:44:40.681Z,97958.71
2019-01-08T12:47:10.086Z,97958.73
2019-01-08T12:49:39.578Z,97957.06
2019-01-08T12:52:10.127Z,97957.10
2019-01-08T12:54:39.455Z,97952.73
2019-01-08T12:57:08.912Z,97950.03
2019-01-08T12:59:38.395Z,97949.38
2019-01-08T13:02:14.544Z,97946.13
2019-01-08T13:04:39.277Z,97949.59
2019-01-08T13:07:08.694Z,97949.31
2019-01-08T13:09:38.192Z,97951.80
2019-01-08T13:12:07.696Z,97941.88
2019-01-08T13:14:37.099Z,97945.80
2019-01-08T13:17:11.335Z,97938.45
2019-01-08T13:19:37.821Z,97938.81
2019-01-08T13:22:07.237Z,97931.92
2019-01-08T13:24:37.034Z,97934.97
2019-01-08T13:27:06.549Z,97932.20
2019-01-08T13:29:35.983Z,97920.50
2019-01-08T13:32:05.388Z,97929.81
2019-01-08T13:34:35.293Z,97930.81
2019-01-08T13:37:04.814Z,97927.81
2019-01-08T13:39:34.221Z,97921.89
2019-01-08T13:42:04.534Z,97911.59
2019-01-08T13:44:34.385Z,97915.26
2019-01-08T13:47:04.040Z,97908.98
2019-01-08T13:49:33.697Z,97910.23
2019-01-08T13:52:03.084Z,97915.54
2019-01-08T13:54:32.869Z,97912.86
2019-01-08T13:57:02.353Z,97913.08
2019-01-08T13:59:31.920Z,97918.53
2019-01-08T14:02:03.816Z,97919.46
2019-01-08T14:04:33.651Z,97917.08
2019-01-08T14:07:03.513Z,97916.75
2019-01-08T14:09:33.099Z,97914.83
2019-01-08T14:12:02.514Z,97906.75
2019-01-08T14:14:32.428Z,97911.13
2019-01-08T14:17:01.962Z,97913.30
2019-01-08T14:19:31.628Z,97914.20
2019-01-08T14:22:01.237Z,97913.33
2019-01-08T14:24:31.942Z,97916.37
2019-01-08T14:27:01.450Z,97907.30
2019-01-08T14:29:31.174Z,97909.43
2019-01-08T14:32:01.017Z,97905.52
2019-01-08T14:34:30.680Z,97905.00
2019-01-08T14:37:00.410Z,97910.91
2019-01-08T14:39:30.148Z,97909.55
2019-01-08T14:42:01.232Z,97914.18
2019-01-08T14:44:30.629Z,97914.50
2019-01-08T14:47:00.180Z,97913.13
2019-01-08T14:49:29.678Z,97913.44
2019-01-08T14:51:59.299Z,97911.63
2019-01-08T14:54:29.173Z,97906.79
2019-01-08T14:56:58.682Z,97906.67
2019-01-08T14:59:28.187Z,97908.68
2019-01-08T15:01:57.705Z,97909.95
2019-01-08T15:04:27.127Z,97903.00
2019-01-08T15:06:56.551Z,97891.25
2019-01-08T15:09:26.258Z,97891.25
2019-01-08T15:11:56.839Z,97901.57
2019-01-08T15:14:26.314Z,97890.78
2019-01-08T15:16:56.088Z,97878.67
2019-01-08T15:19:25.690Z,97882.97
2019-01-08T15:21:55.384Z,97878.25
2019-01-08T15:24:24.923Z,97876.42
2019-01-08T15:26:55.106Z,97883.27
2019-01-08T15:29:24.722Z,97873.27
2019-01-08T15:31:54.304Z,97869.38
2019-01-08T15:34:24.116Z,97866.41
2019-01-08T15:36:53.787Z,97868.11
2019-01-08T15:39:23.913Z,97873.64
2019-01-08T15:41:53.566Z,97876.59
2019-01-08T15:44:23.596Z,97873.87
2019-01-08T15:46:53.457Z,97864.77
2019-01-08T15:49:23.000Z,97867.69
2019-01-08T15:51:52.709Z,97866.29
2019-01-08T15:54:22.367Z,97866.29
2019-01-08T15:56:51.914Z,97864.50
2019-01-08T15:59:21.418Z,97866.21
2019-01-08T16:01:51.148Z,97855.50
2019-01-08T16:04:20.779Z,97855.50
2019-01-08T16:06:50.548Z,97852.52
2019-01-08T16:09:20.049Z,97843.02
2019-01-08T16:11:49.568Z,97840.32
2019-01-08T16:14:18.978Z,97827.45
2019-01-08T16:16:48.687Z,97824.88
2019-01-08T16:19:18.449Z,97822.30
2019-01-08T16:21:48.743Z,97820.60
2019-01-08T16:24:18.529Z,97812.11
2019-01-08T16:26:48.710Z,97818.92
2019-01-08T16:29:18.240Z,97807.20
2019-01-08T16:31:48.019Z,97798.09
2019-01-08T16:34:17.652Z,97800.53
2019-01-08T16:36:48.265Z,97795.33
2019-01-08T16:39:17.832Z,97788.34
2019-01-08T16:41:47.347Z,97777.94
2019-01-08T16:44:17.188Z,97777.86
2019-01-08T16:46:46.979Z,97781.41
2019-01-08T16:49:17.456Z,97781.00
2019-01-08T16:51:49.322Z,97779.25
2019-01-08T16:54:20.511Z,97782.30
2019-01-08T16:56:51.781Z,97791.55
2019-01-08T16:59:25.508Z,97789.27
2019-01-08T17:01:54.948Z,97793.81
2019-01-08T17:04:24.504Z,97797.97
2019-01-08T17:06:54.093Z,97796.80
2019-01-08T17:09:23.784Z,97797.28
2019-01-08T17:11:53.547Z,97802.62
2019-01-08T17:14:23.095Z,97806.03
2019-01-08T17:16:53.810Z,97817.02
2019-01-08T17:19:23.632Z,97826.31
2019-01-08T17:21:53.249Z,97827.70
2019-01-08T17:24:22.814Z,97826.75
2019-01-08T17:26:52.426Z,97830.38
2019-01-08T17:29:22.206Z,97837.03
2019-01-08T17:31:52.352Z,97850.22
2019-01-08T17:34:22.055Z,97849.16
2019-01-08T17:36:51.896Z,97855.16
2019-01-08T17:39:21.786Z,97843.56
2019-01-08T17:41:51.506Z,97849.03
2019-01-08T17:44:21.018Z,97849.03
2019-01-08T17:46:50.453Z,97849.95
2019-01-08T17:49:22.269Z,97849.49
2019-01-08T17:51:52.402Z,97840.27
2019-01-08T17:54:22.396Z,97833.91
2019-01-08T17:56:52.502Z,97832.88
2019-01-08T17:59:25.055Z,97831.21
2019-01-08T18:01:59.788Z,97826.71
2019-01-08T18:04:29.301Z,97826.71
2019-01-08T18:06:59.039Z,97828.34
2019-01-08T18:09:31.027Z,97821.66
2019-01-08T18:12:00.440Z,97826.00
2019-01-08T18:14:30.311Z,97827.31
2019-01-08T18:17:00.812Z,97831.30
2019-01-08T18:19:30.454Z,97833.09
2019-01-08T18:21:59.887Z,97834.02
2019-01-08T18:24:29.825Z,97828.17
2019-01-08T18:26:59.337Z,97826.41
2019-01-08T18:29:28.994Z,97826.41
2019-01-08T18:31:58.755Z,97831.13
2019-01-08T18:34:30.728Z,97835.48
2019-01-08T18:37:00.145Z,97835.00
2019-01-08T18:39:29.960Z,97811.78
2019-01-08T18:41:59.823Z,97805.23
2019-01-08T18:44:29.475Z,97797.59
2019-01-08T18:46:59.072Z,97794.59
2019-01-08T18:49:28.803Z,97780.88
2019-01-08T18:51:58.660Z,97780.88
2019-01-08T18:54:29.206Z,97785.28
2019-01-08T18:56:58.658Z,97784.45
2019-01-08T18:59:30.432Z,97780.47
2019-01-08T19:02:00.322Z,97784.90
2019-01-08T19:04:29.732Z,97782.72
2019-01-08T19:06:59.313Z,97786.13
2019-01-08T19:09:40.225Z,97785.23
2019-01-08T19:12:12.285Z,97785.23
2019-01-08T19:14:42.643Z,97776.59
2019-01-08T19:17:12.389Z,97767.92
2019-01-08T19:19:42.211Z,97780.20
2019-01-08T19:22:12.180Z,97780.20
2019-01-08T19:24:42.420Z,97779.11
2019-01-08T19:27:12.131Z,97780.88
2019-01-08T19:29:41.914Z,97774.87
2019-01-08T19:32:13.765Z,97762.72
2019-01-08T19:34:43.294Z,97764.62
2019-01-08T19:37:12.993Z,97757.00
2019-01-08T19:39:42.843Z,97762.53
2019-01-08T19:42:13.226Z,97756.14
2019-01-08T19:44:42.728Z,97755.13
2019-01-08T19:47:12.470Z,97742.77
2019-01-08T19:49:44.132Z,97749.94
2019-01-08T19:52:13.903Z,97749.94
2019-01-08T19:54:44.097Z,97741.80
2019-01-08T19:57:13.991Z,97746.05
2019-01-08T19:59:43.684Z,97746.05
2019-01-08T20:02:13.303Z,97739.69
2019-01-08T20:04:42.835Z,97739.69
2019-01-08T20:07:12.851Z,97738.98
2019-01-08T20:09:42.556Z,97738.98
2019-01-08T20:12:12.109Z,97744.47
2019-01-08T20:14:41.772Z,97730.34
2019-01-08T20:17:11.573Z,97730.34
2019-01-08T20:19:40.989Z,97742.92
2019-01-08T20:22:10.770Z,97737.67
2019-01-08T20:24:40.480Z,97730.84
2019-01-08T20:27:10.242Z,97730.84
2019-01-08T20:29:39.641Z,97719.67
2019-01-08T20:32:09.474Z,97711.18
2019-01-08T20:34:39.252Z,97709.53
2019-01-08T20:37:09.000Z,97704.63
2019-01-08T20:39:38.510Z,97704.70
2019-01-08T20:42:09.560Z,97705.94
2019-01-08T20:44:39.264Z,97705.94
2019-01-08T20:47:08.994Z,97685.70
2019-01-08T20:49:38.834Z,97695.49
2019-01-08T20:52:08.609Z,97695.53
2019-01-08T20:54:38.213Z,97681.70
2019-01-08T20:57:09.158Z,97681.70
2019-01-08T20:59:39.240Z,97684.45
2019-01-08T21:02:09.140Z,97679.37
2019-01-08T21:04:38.683Z,97682.02
2019-01-08T21:07:08.267Z,97682.02
2019-01-08T21:09:37.783Z,97665.62
2019-01-08T21:12:07.295Z,97647.38
2019-01-08T21:14:36.876Z,97654.34
2019-01-08T21:17:06.621Z,97648.59
2019-01-08T21:19:36.202Z,97651.33
2019-01-08T21:22:05.610Z,97656.75
2019-01-08T21:24:35.389Z,97656.13
2019-01-08T21:27:07.523Z,97642.52
2019-01-08T21:29:36.992Z,97649.44
2019-01-08T21:32:06.589Z,97656.25
2019-01-08T21:34:43.991Z,97657.09
2019-01-08T21:37:07.607Z,97653.23
2019-01-08T21:39:37.014Z,97655.02
2019-01-08T21:42:06.660Z,97648.70
2019-01-08T21:44:36.434Z,97648.70
2019-01-08T21:47:06.220Z,97658.08
2019-01-08T21:49:35.890Z,97646.83
2019-01-08T21:52:05.493Z,97646.97
2019-01-08T21:54:35.231Z,97645.20
2019-01-08T21:57:05.059Z,97647.88
2019-01-08T21:59:34.886Z,97647.88
2019-01-08T22:02:04.660Z,97646.64
2019-01-08T22:04:34.564Z,97646.64
2019-01-08T22:07:04.273Z,97648.33
2019-01-08T22:09:33.913Z,97636.10
2019-01-08T22:12:03.756Z,97636.10
2019-01-08T22:14:33.494Z,97627.81
2019-01-08T22:17:03.111Z,97637.87
2019-01-08T22:19:32.614Z,97639.96
2019-01-08T22:22:02.159Z,97633.70
2019-01-08T22:24:31.595Z,97633.70
2019-01-08T22:27:01.289Z,97629.89
2019-01-08T22:29:30.795Z,97622.00
2019-01-08T22:32:00.559Z,97609.68
2019-01-08T22:34:30.199Z,97609.68
2019-01-08T22:36:59.926Z,97606.05
2019-01-08T22:39:29.562Z,97591.41
2019-01-08T22:41:59.179Z,97591.41
2019-01-08T22:44:29.091Z,97592.06
2019-01-08T22:46:58.760Z,97592.06
2019-01-08T22:49:28.508Z,97606.46
2019-01-08T22:51:58.312Z,97606.46
2019-01-08T22:54:28.033Z,97595.53
2019-01-08T22:56:57.827Z,97598.15
2019-01-08T22:59:27.528Z,97601.41
2019-01-08T23:01:57.156Z,97597.56
2019-01-08T23:04:26.826Z,97600.27
2019-01-08T23:06:56.511Z,97600.27
2019-01-08T23:09:26.190Z,97593.84
2019-01-08T23:11:55.598Z,97591.05
2019-01-08T23:14:25.422Z,97598.56
2019-01-08T23:16:54.830Z,97595.48
2019-01-08T23:19:24.771Z,97595.48
2019-01-08T23:21:54.665Z,97598.86
2019-01-08T23:24:24.113Z,97598.86
2019-01-08T23:26:53.913Z,97599.02
2019-01-08T23:29:23.806Z,97600.95
2019-01-08T23:31:53.678Z,97580.83
2019-01-08T23:34:23.115Z,97581.55
2019-01-08T23:36:52.516Z,97580.98
2019-01-08T23:39:22.825Z,97564.84
2019-01-08T23:41:52.732Z,97563.84
2019-01-08T23:44:22.124Z,97564.38
2019-01-08T23:46:51.834Z,97559.63
2019-01-08T23:49:21.342Z,97559.63
2019-01-08T23:51:56.223Z,97557.25
2019-01-08T23:54:28.083Z,97563.93
2019-01-08T23:56:58.892Z,97558.95
2019-01-08T23:59:28.306Z,97561.58
